Time;durP1;ratioP1;P1;durP2;ratioP2;P2;SDS_P1;SDS_P2;PMS_P1;PMS_P2;Temp;Humidity;BMP_temperature;BMP_pressure;BME280_temperature;BME280_humidity;BME280_pressure;Samples;Min_cycle;Max_cycle;Signal;HPM_P1;HPM_P2
2023/03/22 00:01:33;;;;;;;12.27;5.72;;;9.30;99.90;;;;;;4938024;29;20050;-48
2023/03/22 00:03:59;;;;;;;14.38;5.90;;;9.30;99.90;;;;;;4938157;29;20043;-47
2023/03/22 00:06:25;;;;;;;13.50;5.95;;;9.40;99.90;;;;;;4936148;29;20051;-47
2023/03/22 00:08:52;;;;;;;10.15;5.25;;;9.30;99.90;;;;;;4937074;29;20036;-49
2023/03/22 00:11:20;;;;;;;13.57;5.35;;;9.30;99.90;;;;;;4939366;29;20048;-47
2023/03/22 00:13:46;;;;;;;14.13;5.25;;;9.30;99.90;;;;;;4938669;29;20039;-47
2023/03/22 00:16:13;;;;;;;11.88;5.03;;;9.30;99.90;;;;;;4938737;29;20031;-51
2023/03/22 00:18:40;;;;;;;15.70;4.80;;;9.30;99.90;;;;;;4939207;29;20496;-47
2023/03/22 00:21:14;;;;;;;10.98;4.22;;;9.20;99.90;;;;;;4938009;29;20040;-47
2023/03/22 00:23:40;;;;;;;;;;;9.20;99.90;;;;;;4939952;29;20072;-46
2023/03/22 00:26:06;;;;;;;12.43;4.20;;;9.20;99.90;;;;;;4939222;29;20641;-46
2023/03/22 00:28:32;;;;;;;14.63;4.47;;;9.20;99.90;;;;;;4937618;29;20554;-45
2023/03/22 00:31:00;;;;;;;14.32;4.50;;;9.20;99.90;;;;;;4939033;29;20036;-45
2023/03/22 00:33:27;;;;;;;10.82;4.55;;;9.30;99.90;;;;;;4939180;29;20031;-48
2023/03/22 00:35:57;;;;;;;11.27;4.13;;;9.20;99.90;;;;;;4922422;29;20035;-47
2023/03/22 00:38:23;;;;;;;10.95;4.20;;;9.30;99.90;;;;;;4939231;29;20040;-46
2023/03/22 00:40:48;;;;;;;14.65;4.47;;;9.30;99.90;;;;;;4921862;29;20060;-45
2023/03/22 00:43:15;;;;;;;13.88;3.72;;;9.30;99.90;;;;;;4935962;29;20053;-48
2023/03/22 00:45:41;;;;;;;10.70;4.00;;;9.30;99.90;;;;;;4935218;29;20436;-51
2023/03/22 00:48:08;;;;;;;11.60;3.97;;;9.30;99.90;;;;;;4936019;29;20460;-48
2023/03/22 00:50:34;;;;;;;11.68;3.80;;;9.30;99.90;;;;;;4935035;29;20156;-50
2023/03/22 00:53:01;;;;;;;10.68;3.35;;;9.30;99.90;;;;;;4934279;29;20404;-49
2023/03/22 00:55:26;;;;;;;9.88;3.35;;;9.30;99.90;;;;;;4935634;29;20054;-50
2023/03/22 00:57:52;;;;;;;10.05;3.22;;;9.30;99.90;;;;;;4935343;29;20052;-50
2023/03/22 01:00:18;;;;;;;9.30;3.38;;;9.40;99.90;;;;;;4934581;29;20043;-48
2023/03/22 01:02:44;;;;;;;9.55;2.83;;;9.40;99.90;;;;;;4935673;29;20055;-48
2023/03/22 01:05:14;;;;;;;12.65;2.50;;;9.30;99.90;;;;;;4935527;29;20219;-52
2023/03/22 01:07:42;;;;;;;7.70;2.72;;;9.30;99.90;;;;;;4934492;29;20107;-50
2023/03/22 01:10:09;;;;;;;13.35;3.03;;;9.30;99.90;;;;;;4935468;29;20057;-49
2023/03/22 01:12:35;;;;;;;9.18;2.22;;;9.40;99.90;;;;;;4934676;29;20044;-46
2023/03/22 01:15:01;;;;;;;11.23;2.50;;;9.40;99.90;;;;;;4934560;29;20123;-49
2023/03/22 01:17:26;;;;;;;9.85;2.33;;;9.40;99.90;;;;;;4918359;29;20039;-48
2023/03/22 01:19:52;;;;;;;8.57;2.35;;;9.40;99.90;;;;;;4935187;29;20099;-50
2023/03/22 01:22:18;;;;;;;9.63;2.33;;;9.40;99.90;;;;;;4934900;29;20047;-47
2023/03/22 01:24:44;;;;;;;10.00;2.38;;;9.50;99.90;;;;;;4933524;29;20052;-50
2023/03/22 01:27:10;;;;;;;11.32;2.20;;;9.50;99.90;;;;;;4931242;29;20040;-47
2023/03/22 01:29:36;;;;;;;9.25;2.58;;;9.50;99.90;;;;;;4935344;29;20396;-52
2023/03/22 01:32:03;;;;;;;11.27;2.53;;;9.50;99.90;;;;;;4935602;29;20046;-48
2023/03/22 01:34:28;;;;;;;9.63;2.30;;;9.50;99.90;;;;;;4935094;29;20046;-46
2023/03/22 01:36:54;;;;;;;9.95;2.38;;;9.50;99.90;;;;;;4932553;29;20122;-49
2023/03/22 01:39:20;;;;;;;9.23;2.20;;;9.60;99.90;;;;;;4934732;29;20082;-45
2023/03/22 01:41:45;;;;;;;8.80;2.25;;;9.60;99.90;;;;;;4933789;29;20612;-47
2023/03/22 01:44:15;;;;;;;16.20;2.40;;;9.50;99.90;;;;;;4933997;29;20043;-48
2023/03/22 01:46:43;;;;;;;11.25;2.08;;;9.60;99.90;;;;;;4934838;29;20043;-46
2023/03/22 01:49:15;;;;;;;7.97;2.10;;;9.50;99.90;;;;;;4933077;29;20056;-50
2023/03/22 01:51:42;;;;;;;13.07;2.53;;;9.50;99.90;;;;;;4934738;29;20036;-46
2023/03/22 01:54:13;;;;;;;11.85;2.33;;;9.50;99.90;;;;;;4934477;29;20613;-52
2023/03/22 01:56:40;;;;;;;8.23;2.20;;;9.50;99.90;;;;;;4934503;29;20031;-47
2023/03/22 01:59:09;;;;;;;11.05;2.50;;;9.50;99.90;;;;;;4934580;29;20036;-49
2023/03/22 02:01:36;;;;;;;10.20;2.35;;;9.50;99.90;;;;;;4934130;29;20150;-51
2023/03/22 02:04:11;;;;;;;13.43;3.10;;;9.60;99.90;;;;;;4933159;29;20044;-49
2023/03/22 02:06:37;;;;;;;9.75;2.80;;;9.40;99.90;;;;;;4934417;29;20526;-49
2023/03/22 02:09:05;;;;;;;10.75;2.70;;;9.40;99.90;;;;;;4933828;29;20054;-50
2023/03/22 02:11:37;;;;;;;10.27;2.22;;;9.40;99.90;;;;;;4932712;29;20079;-47
2023/03/22 02:14:32;;;;;;;10.50;2.90;;;9.40;99.90;;;;;;4932960;29;20046;-50
2023/03/22 02:16:58;;;;;;;;;;;9.30;99.90;;;;;;4933194;29;20048;-50
2023/03/22 02:19:28;;;;;;;13.65;3.38;;;9.40;99.90;;;;;;4933418;29;19925;-49
2023/03/22 02:22:02;;;;;;;11.90;2.88;;;9.30;99.90;;;;;;4933326;29;20126;-49
2023/03/22 02:24:55;;;;;;;11.43;3.08;;;9.40;99.90;;;;;;4932129;29;20046;-47
2023/03/22 02:27:43;;;;;;;14.85;3.45;;;9.40;99.90;;;;;;4931764;29;20042;-46
2023/03/22 02:30:23;;;;;;;10.10;2.80;;;9.30;99.90;;;;;;4933787;29;20095;-48
2023/03/22 02:33:12;;;;;;;9.65;2.83;;;9.40;99.90;;;;;;4933879;29;20582;-46
2023/03/22 02:35:44;;;;;;;11.55;2.20;;;9.40;99.90;;;;;;4933971;29;20039;-48
2023/03/22 02:38:25;;;;;;;11.02;2.50;;;9.30;99.90;;;;;;4933959;29;20110;-48
2023/03/22 02:40:56;;;;;;;14.23;3.10;;;9.30;99.90;;;;;;4931368;29;20047;-52
2023/03/22 02:43:37;;;;;;;8.38;2.90;;;9.30;99.90;;;;;;4934186;29;20480;-50
2023/03/22 02:46:11;;;;;;;12.70;3.08;;;9.30;99.90;;;;;;4916131;29;20079;-50
2023/03/22 02:48:46;;;;;;;12.05;2.53;;;9.30;99.90;;;;;;4933061;29;20409;-51
2023/03/22 02:51:20;;;;;;;13.48;2.90;;;9.30;99.90;;;;;;4933493;29;20103;-49
2023/03/22 02:53:57;;;;;;;13.88;3.20;;;9.20;99.90;;;;;;4934045;29;20098;-48
2023/03/22 02:56:38;;;;;;;11.20;3.22;;;9.20;99.90;;;;;;4933821;29;20038;-50
2023/03/22 02:59:06;;;;;;;11.60;3.20;;;9.20;99.90;;;;;;4933497;29;20456;-49
2023/03/22 03:01:48;;;;;;;12.27;4.88;;;9.20;99.90;;;;;;4932141;29;20039;-48
2023/03/22 03:04:19;;;;;;;11.85;3.20;;;9.30;99.90;;;;;;4933730;29;20137;-49
2023/03/22 03:06:48;;;;;;;11.77;3.20;;;9.30;99.90;;;;;;4932744;29;20114;-50
2023/03/22 03:09:18;;;;;;;9.90;3.30;;;9.20;99.90;;;;;;4931824;29;20382;-48
2023/03/22 03:11:49;;;;;;;15.35;3.83;;;9.30;99.90;;;;;;4933622;29;20082;-48
2023/03/22 03:14:32;;;;;;;8.88;3.40;;;9.30;99.90;;;;;;4933033;29;20036;-47
2023/03/22 03:17:22;;;;;;;13.77;3.55;;;9.30;99.90;;;;;;4932819;29;20173;-46
2023/03/22 03:20:20;;;;;;;11.32;3.03;;;9.30;99.90;;;;;;4932206;29;20043;-49
2023/03/22 03:23:08;;;;;;;10.75;3.03;;;9.30;99.90;;;;;;4933271;29;20058;-48
2023/03/22 03:25:42;;;;;;;10.82;2.90;;;9.30;99.90;;;;;;4933405;29;20036;-47
2023/03/22 03:28:28;;;;;;;9.02;3.13;;;9.30;99.90;;;;;;4933281;29;20046;-51
2023/03/22 03:31:40;;;;;;;12.80;3.60;;;9.30;99.90;;;;;;4922743;29;20035;-48
2023/03/22 03:34:27;;;;;;;11.52;2.92;;;9.30;99.90;;;;;;4922610;29;20050;-49
2023/03/22 03:37:04;;;;;;;11.05;3.08;;;9.30;99.90;;;;;;4933281;29;20079;-48
2023/03/22 03:39:33;;;;;;;10.52;3.00;;;9.30;99.90;;;;;;4926888;29;20075;-49
2023/03/22 03:42:01;;;;;;;11.35;3.35;;;9.40;99.90;;;;;;4933113;29;20047;-46
2023/03/22 03:44:29;;;;;;;12.30;3.42;;;9.30;99.90;;;;;;4933326;29;20107;-47
2023/03/22 03:46:56;;;;;;;12.25;3.60;;;9.30;99.90;;;;;;4933086;29;20035;-50
2023/03/22 03:49:22;;;;;;;13.27;2.83;;;9.40;99.90;;;;;;4933075;29;20055;-49
2023/03/22 03:51:52;;;;;;;13.30;3.42;;;9.40;99.90;;;;;;4931386;29;20043;-47
2023/03/22 03:54:18;;;;;;;14.13;3.85;;;9.30;99.90;;;;;;4930546;29;20043;-47
2023/03/22 03:56:46;;;;;;;11.52;4.07;;;9.30;99.90;;;;;;4932792;29;20056;-46
2023/03/22 03:59:14;;;;;;;10.90;4.50;;;9.30;99.90;;;;;;4931054;29;20035;-48
2023/03/22 04:01:48;;;;;;;12.35;4.00;;;9.30;99.90;;;;;;4932797;29;20388;-48
2023/03/22 04:04:25;;;;;;;15.20;4.45;;;9.40;99.90;;;;;;4933106;29;20040;-49
2023/03/22 04:07:02;;;;;;;13.02;4.57;;;9.30;99.90;;;;;;4931747;29;20043;-47
2023/03/22 04:09:34;;;;;;;11.35;5.18;;;9.30;99.90;;;;;;4932877;29;20035;-52
2023/03/22 04:12:00;;;;;;;10.07;4.97;;;9.30;99.90;;;;;;4932678;29;20387;-47
2023/03/22 04:14:26;;;;;;;11.13;5.35;;;9.30;99.90;;;;;;4932404;29;20040;-48
2023/03/22 04:16:53;;;;;;;13.82;5.78;;;9.40;99.90;;;;;;4932432;29;20101;-52
2023/03/22 04:19:19;;;;;;;12.27;5.88;;;9.30;99.90;;;;;;4934874;29;20047;-52
2023/03/22 04:21:45;;;;;;;11.88;6.22;;;9.30;99.90;;;;;;4936571;29;20039;-47
2023/03/22 04:24:11;;;;;;;21.00;7.63;;;9.20;99.90;;;;;;4927734;29;20539;-49
2023/03/22 04:26:37;;;;;;;13.55;7.20;;;9.30;99.90;;;;;;4936668;29;20503;-50
2023/03/22 04:29:04;;;;;;;13.10;7.22;;;9.30;99.90;;;;;;4936325;29;20067;-44
2023/03/22 04:31:31;;;;;;;14.25;7.68;;;9.30;99.90;;;;;;4936638;29;20040;-46
2023/03/22 04:33:59;;;;;;;15.27;8.63;;;9.30;99.90;;;;;;4919184;29;20036;-53
2023/03/22 04:36:30;;;;;;;19.48;8.73;;;9.40;99.90;;;;;;4935101;29;20039;-53
2023/03/22 04:38:56;;;;;;;14.50;7.90;;;9.20;99.90;;;;;;4932360;29;20105;-49
2023/03/22 04:41:22;;;;;;;16.33;8.10;;;9.30;99.90;;;;;;4935952;29;20522;-46
2023/03/22 04:43:49;;;;;;;19.98;9.63;;;9.20;99.90;;;;;;4936038;29;20126;-49
2023/03/22 04:46:16;;;;;;;17.13;9.13;;;9.30;99.90;;;;;;4936147;29;20047;-48
2023/03/22 04:48:42;;;;;;;20.05;9.77;;;9.30;99.90;;;;;;4934672;29;20051;-47
2023/03/22 04:51:10;;;;;;;25.65;10.30;;;9.30;99.90;;;;;;4933648;29;20134;-49
2023/03/22 04:53:38;;;;;;;17.13;9.63;;;9.40;99.90;;;;;;4935506;29;20040;-49
2023/03/22 04:56:06;;;;;;;17.27;9.57;;;9.50;99.90;;;;;;4935847;29;20468;-47
2023/03/22 04:58:34;;;;;;;20.38;9.90;;;9.40;99.90;;;;;;4934513;29;20054;-49
2023/03/22 05:01:00;;;;;;;21.13;10.18;;;9.40;99.90;;;;;;4935617;29;20040;-53
2023/03/22 05:03:26;;;;;;;16.85;9.90;;;9.50;99.90;;;;;;4935849;29;20408;-53
2023/03/22 05:05:55;;;;;;;17.40;9.70;;;9.50;99.90;;;;;;4935652;29;20039;-48
2023/03/22 05:08:24;;;;;;;16.33;9.88;;;9.50;99.90;;;;;;4935532;29;20083;-47
2023/03/22 05:10:54;;;;;;;19.15;9.85;;;9.50;99.90;;;;;;4935627;29;20048;-48
2023/03/22 05:13:21;;;;;;;17.23;10.32;;;9.50;99.90;;;;;;4933529;29;20044;-47
2023/03/22 05:15:48;;;;;;;18.83;10.18;;;9.50;99.90;;;;;;4934598;29;20044;-49
2023/03/22 05:18:15;;;;;;;18.88;10.63;;;9.60;99.90;;;;;;4935636;29;20403;-50
2023/03/22 05:20:42;;;;;;;16.02;9.73;;;9.50;99.90;;;;;;4935493;29;20055;-49
2023/03/22 05:23:08;;;;;;;19.20;10.57;;;9.60;99.90;;;;;;4934111;29;20408;-50
2023/03/22 05:25:36;;;;;;;17.58;9.75;;;9.50;99.90;;;;;;4918478;29;20645;-49
2023/03/22 05:28:02;;;;;;;20.10;9.93;;;9.50;99.90;;;;;;4935177;29;20040;-49
2023/03/22 05:30:29;;;;;;;18.40;9.85;;;9.50;99.90;;;;;;4934750;29;20039;-48
2023/03/22 05:33:02;;;;;;;20.98;10.73;;;9.50;99.90;;;;;;4935136;29;20127;-50
2023/03/22 05:35:30;;;;;;;17.55;9.48;;;9.40;99.90;;;;;;4934909;29;20036;-51
2023/03/22 05:37:56;;;;;;;18.75;10.23;;;9.50;99.90;;;;;;4934942;29;20139;-49
2023/03/22 05:40:23;;;;;;;18.92;10.15;;;9.50;99.90;;;;;;4934836;29;20054;-50
2023/03/22 05:42:48;;;;;;;18.02;10.60;;;9.40;99.90;;;;;;4935114;29;20046;-52
2023/03/22 05:45:14;;;;;;;21.85;10.32;;;9.40;99.90;;;;;;4934426;29;20031;-49
2023/03/22 05:47:40;;;;;;;22.77;11.32;;;9.60;99.90;;;;;;4935072;29;20087;-48
2023/03/22 05:50:08;;;;;;;19.83;10.13;;;9.50;99.90;;;;;;4934731;29;20058;-48
2023/03/22 05:52:34;;;;;;;19.95;10.95;;;9.50;99.90;;;;;;4935166;29;20139;-47
2023/03/22 05:54:59;;;;;;;18.42;10.18;;;9.50;99.90;;;;;;4934758;29;20051;-47
2023/03/22 05:57:26;;;;;;;18.67;10.95;;;9.60;99.90;;;;;;4934379;29;20126;-47
2023/03/22 05:59:52;;;;;;;19.45;10.02;;;9.60;99.90;;;;;;4932684;29;20115;-46
2023/03/22 06:02:21;;;;;;;18.85;10.05;;;9.60;99.90;;;;;;4934908;29;20078;-49
2023/03/22 06:04:47;;;;;;;19.73;10.27;;;9.50;99.90;;;;;;4934688;29;20463;-48
2023/03/22 06:07:13;;;;;;;19.02;10.23;;;9.60;99.90;;;;;;4933848;29;20086;-48
2023/03/22 06:09:39;;;;;;;20.85;10.68;;;9.60;99.90;;;;;;4932027;29;20511;-49
2023/03/22 06:12:05;;;;;;;17.23;10.48;;;9.60;99.90;;;;;;4933283;29;20040;-49
2023/03/22 06:14:31;;;;;;;16.88;9.52;;;9.70;99.90;;;;;;4933849;29;20435;-48
2023/03/22 06:16:56;;;;;;;17.08;9.43;;;9.80;99.90;;;;;;4923150;29;20044;-52
2023/03/22 06:19:24;;;;;;;16.98;9.70;;;9.80;99.90;;;;;;4932284;29;20464;-52
2023/03/22 06:21:51;;;;;;;16.33;9.82;;;9.70;99.90;;;;;;4934526;29;20082;-50
2023/03/22 06:24:18;;;;;;;18.52;9.43;;;9.70;99.90;;;;;;4934466;29;20091;-50
2023/03/22 06:26:44;;;;;;;20.70;10.38;;;9.80;99.90;;;;;;4934368;29;20041;-49
2023/03/22 06:29:10;;;;;;;20.05;10.35;;;9.80;99.90;;;;;;4933764;29;20102;-51
2023/03/22 06:31:36;;;;;;;17.42;9.70;;;9.80;99.90;;;;;;4934197;29;20036;-51
2023/03/22 06:34:03;;;;;;;16.35;9.52;;;9.90;99.90;;;;;;4934003;29;20468;-48
2023/03/22 06:36:29;;;;;;;16.50;9.10;;;9.90;99.90;;;;;;4917207;29;20811;-49
2023/03/22 06:38:57;;;;;;;17.10;9.57;;;10.00;99.90;;;;;;4932706;29;20051;-51
2023/03/22 06:41:23;;;;;;;18.30;10.25;;;10.00;99.90;;;;;;4932910;29;20336;-49
2023/03/22 06:43:49;;;;;;;18.60;8.95;;;10.10;99.90;;;;;;4934146;29;20043;-49
2023/03/22 06:46:15;;;;;;;14.43;8.55;;;10.20;99.90;;;;;;4933767;29;20102;-49
2023/03/22 06:48:40;;;;;;;17.77;8.90;;;10.20;99.90;;;;;;4934056;29;20047;-50
2023/03/22 06:51:06;;;;;;;25.33;9.98;;;10.30;99.90;;;;;;4933704;29;20047;-47
2023/03/22 06:53:32;;;;;;;13.50;8.73;;;10.20;99.90;;;;;;4931805;29;20039;-49
2023/03/22 06:55:58;;;;;;;13.60;8.50;;;10.20;99.90;;;;;;4916722;29;20047;-46
2023/03/22 06:58:23;;;;;;;15.75;8.13;;;10.30;99.90;;;;;;4933066;29;20130;-47
2023/03/22 07:00:49;;;;;;;15.57;7.95;;;10.30;99.90;;;;;;4933505;29;20118;-47
2023/03/22 07:03:15;;;;;;;18.88;8.27;;;10.30;99.90;;;;;;4916215;29;20051;-46
2023/03/22 07:05:40;;;;;;;15.23;7.75;;;10.30;99.90;;;;;;4933974;29;20531;-48
2023/03/22 07:08:06;;;;;;;15.68;6.85;;;10.30;99.90;;;;;;4933607;29;20395;-47
2023/03/22 07:10:32;;;;;;;13.18;7.00;;;10.30;99.90;;;;;;4932672;29;20415;-50
2023/03/22 07:12:58;;;;;;;12.43;7.32;;;10.40;99.90;;;;;;4931942;29;20035;-47
2023/03/22 07:15:24;;;;;;;16.00;7.30;;;10.40;99.90;;;;;;4918523;29;20047;-47
2023/03/22 07:17:50;;;;;;;13.60;6.80;;;10.40;99.90;;;;;;4933159;29;20044;-50
2023/03/22 07:20:17;;;;;;;15.18;6.20;;;10.50;99.90;;;;;;4933305;29;20048;-48
2023/03/22 07:22:44;;;;;;;14.85;6.60;;;10.50;99.90;;;;;;4933506;29;20491;-51
2023/03/22 07:25:10;;;;;;;10.25;6.38;;;10.60;99.90;;;;;;4933346;29;20048;-47
2023/03/22 07:27:36;;;;;;;11.85;6.05;;;10.50;99.90;;;;;;4933459;29;20043;-47
2023/03/22 07:30:03;;;;;;;13.02;6.47;;;10.50;99.90;;;;;;4932769;29;20047;-47
2023/03/22 07:32:30;;;;;;;13.30;5.55;;;10.60;99.90;;;;;;4933067;29;20175;-48
2023/03/22 07:34:55;;;;;;;12.40;5.90;;;10.60;99.90;;;;;;4933743;29;20502;-49
2023/03/22 07:37:21;;;;;;;15.23;5.43;;;10.60;99.90;;;;;;4932130;29;20043;-51
2023/03/22 07:39:47;;;;;;;12.52;4.95;;;10.50;99.90;;;;;;4932383;29;20645;-50
2023/03/22 07:42:13;;;;;;;12.45;5.10;;;10.60;99.90;;;;;;4916582;29;20162;-50
2023/03/22 07:44:39;;;;;;;13.35;5.15;;;10.60;99.90;;;;;;4933524;29;20130;-51
2023/03/22 07:47:04;;;;;;;9.70;4.53;;;10.60;99.90;;;;;;4932789;29;20040;-48
2023/03/22 07:49:30;;;;;;;12.05;4.93;;;10.60;99.90;;;;;;4933220;29;20058;-47
2023/03/22 07:51:56;;;;;;;11.80;4.60;;;10.60;99.90;;;;;;4933121;29;20083;-50
2023/03/22 07:54:22;;;;;;;9.00;4.50;;;10.60;99.90;;;;;;4935680;29;20082;-50
2023/03/22 07:56:48;;;;;;;13.23;4.60;;;10.60;99.90;;;;;;4937327;29;20109;-46
2023/03/22 07:59:15;;;;;;;10.75;4.88;;;10.70;99.90;;;;;;4928940;29;20059;-45
2023/03/22 08:01:42;;;;;;;10.65;4.03;;;10.70;99.90;;;;;;4931679;29;20111;-50
2023/03/22 08:04:07;;;;;;;12.80;4.65;;;10.80;99.90;;;;;;4928399;29;20122;-47
2023/03/22 08:06:35;;;;;;;11.07;4.38;;;10.80;99.90;;;;;;4931114;29;20122;-50
2023/03/22 08:09:07;;;;;;;11.02;4.50;;;10.70;99.90;;;;;;4928019;29;20066;-47
2023/03/22 08:11:33;;;;;;;9.10;4.32;;;10.80;99.90;;;;;;4928833;29;20048;-46
2023/03/22 08:13:59;;;;;;;12.18;4.68;;;10.70;99.90;;;;;;4911906;29;20119;-47
2023/03/22 08:16:25;;;;;;;13.60;4.70;;;10.80;99.90;;;;;;4929601;29;20047;-49
2023/03/22 08:18:50;;;;;;;11.70;4.70;;;10.80;99.90;;;;;;4930146;29;20471;-49
2023/03/22 08:21:16;;;;;;;9.80;4.25;;;10.80;99.90;;;;;;4927416;29;20063;-45
2023/03/22 08:23:42;;;;;;;12.60;4.45;;;10.80;99.90;;;;;;4928386;29;20168;-47
2023/03/22 08:26:08;;;;;;;10.98;4.10;;;10.90;99.90;;;;;;4929718;29;20040;-48
2023/03/22 08:28:34;;;;;;;15.95;4.22;;;10.90;99.90;;;;;;4926666;29;20990;-45
2023/03/22 08:31:00;;;;;;;9.80;4.20;;;11.00;99.90;;;;;;4929867;29;20044;-53
2023/03/22 08:33:26;;;;;;;12.48;4.32;;;11.10;99.90;;;;;;4927845;29;20531;-48
2023/03/22 08:36:07;;;;;;;12.43;4.30;;;11.10;99.90;;;;;;4928427;29;20040;-48
2023/03/22 08:38:32;;;;;;;13.23;4.03;;;11.20;99.90;;;;;;4928859;29;20056;-46
2023/03/22 08:40:58;;;;;;;13.65;4.40;;;11.20;99.90;;;;;;4928744;29;20079;-48
2023/03/22 08:43:24;;;;;;;11.27;4.38;;;11.30;99.90;;;;;;4928977;29;22044;-49
2023/03/22 08:45:49;;;;;;;10.50;3.97;;;11.40;99.90;;;;;;4929626;29;20562;-48
2023/03/22 08:48:15;;;;;;;11.85;3.95;;;11.40;99.90;;;;;;4929409;29;20044;-48
2023/03/22 08:50:41;;;;;;;14.30;4.63;;;11.40;99.90;;;;;;4927336;29;20052;-49
2023/03/22 08:53:07;;;;;;;14.60;4.38;;;11.50;99.90;;;;;;4928532;29;20123;-47
2023/03/22 08:55:36;;;;;;;13.63;4.22;;;11.50;99.90;;;;;;4929199;29;20031;-46
2023/03/22 08:58:02;;;;;;;10.45;3.80;;;11.50;99.90;;;;;;4928171;29;20393;-50
2023/03/22 09:00:28;;;;;;;11.63;3.63;;;11.50;99.90;;;;;;4927978;29;20043;-47
2023/03/22 09:02:54;;;;;;;12.10;3.50;;;11.50;99.90;;;;;;4927868;29;20520;-48
2023/03/22 09:05:19;;;;;;;10.40;3.55;;;11.50;99.90;;;;;;4929968;29;20076;-49
2023/03/22 09:07:45;;;;;;;11.20;3.70;;;11.50;99.90;;;;;;4928597;29;20044;-48
2023/03/22 09:10:11;;;;;;;10.52;3.75;;;11.50;99.90;;;;;;4928824;29;20067;-47
2023/03/22 09:12:37;;;;;;;12.82;3.67;;;11.50;99.90;;;;;;4925185;29;20230;-48
2023/03/22 09:15:05;;;;;;;8.27;3.15;;;11.50;99.90;;;;;;4928461;29;20393;-47
2023/03/22 09:17:30;;;;;;;11.60;3.33;;;11.60;99.90;;;;;;4927606;29;20043;-46
2023/03/22 09:19:56;;;;;;;11.95;3.53;;;11.60;99.90;;;;;;4928887;29;20369;-49
2023/03/22 09:22:22;;;;;;;9.25;3.47;;;11.60;99.90;;;;;;4928763;29;20047;-46
2023/03/22 09:24:47;;;;;;;9.90;3.20;;;11.60;99.90;;;;;;4911078;29;20047;-47
2023/03/22 09:27:13;;;;;;;10.77;3.47;;;11.70;99.90;;;;;;4928058;29;20031;-45
2023/03/22 09:29:39;;;;;;;14.35;3.50;;;11.60;99.90;;;;;;4927704;29;20067;-48
2023/03/22 09:32:05;;;;;;;10.82;4.30;;;11.60;99.90;;;;;;4926269;29;20031;-48
2023/03/22 09:34:30;;;;;;;9.48;3.10;;;11.60;99.90;;;;;;4927295;29;20870;-48
2023/03/22 09:36:57;;;;;;;12.18;3.30;;;11.50;99.90;;;;;;4927542;29;20872;-48
2023/03/22 09:39:23;;;;;;;11.80;3.80;;;11.40;99.90;;;;;;4910614;29;20141;-46
2023/03/22 09:41:56;;;;;;;9.23;3.38;;;11.40;99.90;;;;;;4927806;29;20035;-46
2023/03/22 09:44:31;;;;;;;11.95;3.58;;;11.40;99.90;;;;;;4926928;29;20134;-48
2023/03/22 09:46:58;;;;;;;17.15;3.67;;;11.40;99.90;;;;;;4913990;29;20490;-47
2023/03/22 09:49:32;;;;;;;11.00;3.60;;;11.40;99.90;;;;;;4926298;29;20542;-49
2023/03/22 09:51:58;;;;;;;10.10;3.25;;;11.40;99.90;;;;;;4928161;29;20084;-48
2023/03/22 09:54:37;;;;;;;11.00;3.30;;;11.40;99.90;;;;;;4927590;29;20039;-50
2023/03/22 09:57:13;;;;;;;9.30;3.00;;;11.40;99.90;;;;;;4926470;29;20038;-48
2023/03/22 09:59:50;;;;;;;11.18;3.38;;;11.50;99.90;;;;;;4926988;29;20143;-50
2023/03/22 10:02:44;;;;;;;9.90;3.10;;;11.40;99.90;;;;;;4926560;29;20275;-48
2023/03/22 10:05:25;;;;;;;10.10;2.97;;;11.50;99.90;;;;;;4926990;29;20031;-50
2023/03/22 10:07:59;;;;;;;11.60;3.38;;;11.50;99.90;;;;;;4928090;29;20050;-47
2023/03/22 10:10:26;;;;;;;9.50;3.10;;;11.50;99.90;;;;;;4930732;29;20183;-47
2023/03/22 10:13:39;;;;;;;11.30;2.97;;;11.50;99.90;;;;;;4930643;29;20039;-48
2023/03/22 10:16:10;;;;;;;9.88;3.28;;;11.50;99.90;;;;;;4921616;29;20098;-50
2023/03/22 10:18:42;;;;;;;9.18;3.00;;;11.40;99.90;;;;;;4933312;29;20134;-50
2023/03/22 10:21:13;;;;;;;11.70;3.42;;;11.40;99.90;;;;;;4934490;29;20040;-50
2023/03/22 10:23:44;;;;;;;9.77;3.85;;;11.40;99.90;;;;;;4933457;29;20043;-53
2023/03/22 10:26:20;;;;;;;9.95;3.20;;;11.40;99.90;;;;;;4917537;29;20496;-51
2023/03/22 10:28:56;;;;;;;13.10;3.85;;;11.50;99.90;;;;;;4934675;29;20047;-51
2023/03/22 10:31:22;;;;;;;9.90;2.83;;;11.40;99.90;;;;;;4934248;29;20044;-51
2023/03/22 10:33:58;;;;;;;9.20;3.35;;;11.40;99.90;;;;;;4915874;29;20050;-50
2023/03/22 10:36:30;;;;;;;9.75;3.30;;;11.40;99.90;;;;;;4930697;29;20031;-51
2023/03/22 10:39:17;;;;;;;8.90;3.25;;;11.30;99.90;;;;;;4934011;29;20524;-51
2023/03/22 10:41:43;;;;;;;12.13;3.53;;;11.20;99.90;;;;;;4932652;29;20043;-47
2023/03/22 10:44:16;;;;;;;10.35;3.17;;;11.20;99.90;;;;;;4934076;29;20043;-48
2023/03/22 10:46:44;;;;;;;8.45;3.40;;;11.10;99.90;;;;;;4926458;29;20463;-48
2023/03/22 10:49:23;;;;;;;9.88;3.47;;;11.10;99.90;;;;;;4933789;29;20036;-49
2023/03/22 10:51:53;;;;;;;14.35;3.83;;;11.00;99.90;;;;;;4932721;29;20099;-50
2023/03/22 10:54:20;;;;;;;9.30;3.53;;;10.90;99.90;;;;;;4933640;29;20044;-50
2023/03/22 10:56:46;;;;;;;8.88;3.80;;;10.90;99.90;;;;;;4933165;29;20083;-48
2023/03/22 10:59:57;;;;;;;7.32;2.85;;;10.90;99.90;;;;;;4932615;29;20093;-47
2023/03/22 11:02:26;;;;;;;11.18;3.75;;;10.80;99.90;;;;;;4931205;29;20126;-46
2023/03/22 11:04:58;;;;;;;10.07;3.55;;;10.80;99.90;;;;;;4933858;29;20046;-48
2023/03/22 11:07:30;;;;;;;12.82;3.47;;;10.80;99.90;;;;;;4932748;29;20395;-46
2023/03/22 11:10:11;;;;;;;10.82;3.30;;;10.80;99.90;;;;;;4933845;29;20043;-49
2023/03/22 11:12:42;;;;;;;8.35;3.55;;;10.80;99.90;;;;;;4933542;29;20047;-47
2023/03/22 11:15:21;;;;;;;9.80;2.95;;;10.80;99.90;;;;;;4932493;29;20047;-46
2023/03/22 11:17:47;;;;;;;12.70;3.05;;;10.80;99.90;;;;;;4933344;29;20185;-44
2023/03/22 11:20:18;;;;;;;10.00;3.30;;;10.80;99.90;;;;;;4933813;29;20484;-48
2023/03/22 11:22:48;;;;;;;8.35;3.00;;;10.80;99.90;;;;;;4916407;29;20059;-49
2023/03/22 11:25:26;;;;;;;6.85;2.92;;;10.80;99.90;;;;;;4930991;29;20503;-47
2023/03/22 11:28:06;;;;;;;8.68;2.90;;;10.80;99.90;;;;;;4932372;29;20036;-46
2023/03/22 11:30:33;;;;;;;8.10;3.00;;;10.90;99.90;;;;;;4933408;29;20119;-46
2023/03/22 11:33:08;;;;;;;8.93;2.83;;;10.90;99.90;;;;;;4933257;29;20494;-47
2023/03/22 11:35:36;;;;;;;7.85;3.28;;;10.90;99.90;;;;;;4933330;29;20039;-49
2023/03/22 11:38:03;;;;;;;8.93;3.00;;;11.00;99.90;;;;;;4933414;29;20440;-50
2023/03/22 11:40:32;;;;;;;8.57;2.40;;;11.00;99.90;;;;;;4933184;29;20043;-48
2023/03/22 11:43:16;;;;;;;7.80;2.88;;;11.00;99.90;;;;;;4933894;29;20070;-51
2023/03/22 11:45:43;;;;;;;13.13;3.17;;;11.00;99.90;;;;;;4932698;29;20043;-51
2023/03/22 11:48:19;;;;;;;7.53;2.97;;;11.00;99.90;;;;;;4932387;29;20483;-47
2023/03/22 11:50:45;;;;;;;11.05;3.22;;;11.00;99.90;;;;;;4932515;29;20114;-50
2023/03/22 11:53:20;;;;;;;10.48;3.25;;;11.10;99.90;;;;;;4931636;29;20115;-48
2023/03/22 11:55:46;;;;;;;;;;;11.00;99.90;;;;;;4932480;29;20087;-49
2023/03/22 11:58:35;;;;;;;8.70;2.95;;;11.10;99.90;;;;;;4930767;29;19918;-51
2023/03/22 12:01:03;;;;;;;11.13;3.28;;;11.10;99.90;;;;;;4927854;29;20058;-46
2023/03/22 12:03:40;;;;;;;12.35;3.15;;;11.10;99.90;;;;;;4932662;29;20050;-46
2023/03/22 12:06:27;;;;;;;7.47;3.10;;;11.10;99.90;;;;;;4927057;29;20511;-46
2023/03/22 12:09:03;;;;;;;9.77;3.05;;;11.10;99.90;;;;;;4931792;29;20054;-50
2023/03/22 12:11:35;;;;;;;7.00;2.95;;;11.10;99.90;;;;;;4932215;29;20111;-47
2023/03/22 12:14:21;;;;;;;9.60;2.85;;;11.10;99.90;;;;;;4914233;29;20048;-47
2023/03/22 12:17:00;;;;;;;9.48;2.72;;;11.10;99.90;;;;;;4912370;29;20044;-46
2023/03/22 12:19:59;;;;;;;9.05;2.67;;;11.10;99.90;;;;;;4932337;29;20495;-47
2023/03/22 12:22:34;;;;;;;5.80;2.30;;;11.10;99.90;;;;;;4932155;29;20047;-46
2023/03/22 12:25:02;;;;;;;6.00;2.42;;;11.10;99.90;;;;;;4912864;29;20216;-48
2023/03/22 12:27:37;;;;;;;9.20;2.85;;;11.10;99.90;;;;;;4931956;29;20043;-45
2023/03/22 12:30:11;;;;;;;8.77;3.03;;;11.10;99.90;;;;;;4925220;29;20040;-51
2023/03/22 12:32:42;;;;;;;7.40;2.58;;;11.00;99.90;;;;;;4928050;29;20035;-47
2023/03/22 12:35:17;;;;;;;10.95;2.85;;;11.10;99.90;;;;;;4931331;29;20080;-51
2023/03/22 12:37:46;;;;;;;11.88;2.72;;;11.10;99.90;;;;;;4930600;29;20043;-48
2023/03/22 12:40:21;;;;;;;9.73;2.80;;;11.10;99.90;;;;;;4933311;29;20111;-50
2023/03/22 12:42:50;;;;;;;8.73;3.08;;;11.10;99.90;;;;;;4931037;29;20406;-50
2023/03/22 12:45:25;;;;;;;9.57;3.53;;;11.00;99.90;;;;;;4932860;29;20118;-51
2023/03/22 12:48:12;;;;;;;10.57;3.85;;;11.00;99.90;;;;;;4933262;29;20428;-49
2023/03/22 12:50:52;;;;;;;7.93;3.40;;;10.90;99.90;;;;;;4933023;29;20052;-47
2023/03/22 12:53:20;;;;;;;11.18;3.63;;;10.90;99.90;;;;;;4933855;29;20036;-51
2023/03/22 12:55:47;;;;;;;9.18;3.40;;;10.90;99.90;;;;;;4934358;29;20484;-50
2023/03/22 12:58:21;;;;;;;8.73;3.78;;;10.80;99.90;;;;;;4934570;29;20043;-47
2023/03/22 13:01:21;;;;;;;12.77;4.07;;;10.90;99.90;;;;;;4934809;29;20083;-50